sensor_id;sensor_type;location;lat;lon;timestamp;P1;durP1;ratioP1;P2;durP2;ratioP2
26303;SDS011;70693;48.680;8.890;2024-01-06T00:01:16;6.43;;;3.72;;
26303;SDS011;70693;48.680;8.890;2024-01-06T00:03:41;6.18;;;4.05;;
26303;SDS011;70693;48.680;8.890;2024-01-06T00:06:07;6.15;;;3.67;;
26303;SDS011;70693;48.680;8.890;2024-01-06T00:08:36;6.85;;;4.43;;
26303;SDS011;70693;48.680;8.890;2024-01-06T00:11:01;6.43;;;3.92;;
26303;SDS011;70693;48.680;8.890;2024-01-06T00:13:28;10.00;;;4.35;;
26303;SDS011;70693;48.680;8.890;2024-01-06T00:15:53;5.63;;;4.15;;
26303;SDS011;70693;48.680;8.890;2024-01-06T00:18:19;7.85;;;4.00;;
26303;SDS011;70693;48.680;8.890;2024-01-06T00:20:44;6.35;;;3.70;;
26303;SDS011;70693;48.680;8.890;2024-01-06T00:23:10;5.78;;;3.88;;
26303;SDS011;70693;48.680;8.890;2024-01-06T00:25:36;5.93;;;3.72;;
26303;SDS011;70693;48.680;8.890;2024-01-06T00:28:01;6.90;;;3.90;;
26303;SDS011;70693;48.680;8.890;2024-01-06T00:30:27;5.30;;;3.92;;
26303;SDS011;70693;48.680;8.890;2024-01-06T00:32:52;6.15;;;3.75;;
26303;SDS011;70693;48.680;8.890;2024-01-06T00:35:18;6.40;;;3.78;;
26303;SDS011;70693;48.680;8.890;2024-01-06T00:37:44;6.53;;;3.80;;
26303;SDS011;70693;48.680;8.890;2024-01-06T00:40:09;7.38;;;3.85;;
26303;SDS011;70693;48.680;8.890;2024-01-06T00:42:35;7.68;;;4.45;;
26303;SDS011;70693;48.680;8.890;2024-01-06T00:45:01;7.25;;;4.13;;
26303;SDS011;70693;48.680;8.890;2024-01-06T00:47:27;8.70;;;5.07;;
26303;SDS011;70693;48.680;8.890;2024-01-06T00:49:52;8.70;;;5.20;;
26303;SDS011;70693;48.680;8.890;2024-01-06T00:52:19;8.25;;;4.72;;
26303;SDS011;70693;48.680;8.890;2024-01-06T00:54:44;8.48;;;4.90;;
26303;SDS011;70693;48.680;8.890;2024-01-06T00:57:11;7.53;;;4.28;;
26303;SDS011;70693;48.680;8.890;2024-01-06T00:59:37;8.35;;;4.40;;
26303;SDS011;70693;48.680;8.890;2024-01-06T01:02:02;6.80;;;4.43;;
26303;SDS011;70693;48.680;8.890;2024-01-06T01:04:28;6.50;;;4.05;;
26303;SDS011;70693;48.680;8.890;2024-01-06T01:06:53;7.05;;;3.88;;
26303;SDS011;70693;48.680;8.890;2024-01-06T01:09:19;6.85;;;4.45;;
26303;SDS011;70693;48.680;8.890;2024-01-06T01:11:45;6.10;;;3.83;;
26303;SDS011;70693;48.680;8.890;2024-01-06T01:14:10;8.00;;;4.07;;
26303;SDS011;70693;48.680;8.890;2024-01-06T01:16:38;5.80;;;3.60;;
26303;SDS011;70693;48.680;8.890;2024-01-06T01:19:03;6.00;;;3.60;;
26303;SDS011;70693;48.680;8.890;2024-01-06T01:21:29;6.38;;;3.38;;
26303;SDS011;70693;48.680;8.890;2024-01-06T01:23:54;5.47;;;3.42;;
26303;SDS011;70693;48.680;8.890;2024-01-06T01:26:20;6.32;;;3.42;;
26303;SDS011;70693;48.680;8.890;2024-01-06T01:28:46;6.72;;;3.50;;
26303;SDS011;70693;48.680;8.890;2024-01-06T01:31:12;5.70;;;3.60;;
26303;SDS011;70693;48.680;8.890;2024-01-06T01:33:38;6.13;;;3.40;;
26303;SDS011;70693;48.680;8.890;2024-01-06T01:36:04;6.20;;;3.60;;
26303;SDS011;70693;48.680;8.890;2024-01-06T01:38:29;6.95;;;3.88;;
26303;SDS011;70693;48.680;8.890;2024-01-06T01:40:55;6.97;;;3.65;;
26303;SDS011;70693;48.680;8.890;2024-01-06T01:43:21;6.65;;;3.20;;
26303;SDS011;70693;48.680;8.890;2024-01-06T01:45:49;6.30;;;3.60;;
26303;SDS011;70693;48.680;8.890;2024-01-06T01:48:18;6.18;;;3.85;;
26303;SDS011;70693;48.680;8.890;2024-01-06T01:50:45;5.03;;;3.20;;
26303;SDS011;70693;48.680;8.890;2024-01-06T01:53:12;5.53;;;3.20;;
26303;SDS011;70693;48.680;8.890;2024-01-06T01:55:37;5.03;;;3.15;;
26303;SDS011;70693;48.680;8.890;2024-01-06T01:58:04;5.63;;;3.38;;
26303;SDS011;70693;48.680;8.890;2024-01-06T02:00:31;5.95;;;3.25;;
26303;SDS011;70693;48.680;8.890;2024-01-06T02:02:56;5.05;;;2.97;;
26303;SDS011;70693;48.680;8.890;2024-01-06T02:05:24;4.47;;;3.20;;
26303;SDS011;70693;48.680;8.890;2024-01-06T02:07:49;6.32;;;3.25;;
26303;SDS011;70693;48.680;8.890;2024-01-06T02:10:16;6.45;;;2.88;;
26303;SDS011;70693;48.680;8.890;2024-01-06T02:12:42;4.72;;;2.83;;
26303;SDS011;70693;48.680;8.890;2024-01-06T02:15:08;4.93;;;3.10;;
26303;SDS011;70693;48.680;8.890;2024-01-06T02:17:35;4.43;;;2.80;;
26303;SDS011;70693;48.680;8.890;2024-01-06T02:20:00;5.82;;;2.47;;
26303;SDS011;70693;48.680;8.890;2024-01-06T02:22:26;4.70;;;2.72;;
26303;SDS011;70693;48.680;8.890;2024-01-06T02:24:52;4.72;;;2.70;;
26303;SDS011;70693;48.680;8.890;2024-01-06T02:27:18;4.85;;;3.00;;
26303;SDS011;70693;48.680;8.890;2024-01-06T02:29:44;4.15;;;2.33;;
26303;SDS011;70693;48.680;8.890;2024-01-06T02:32:11;3.58;;;2.28;;
26303;SDS011;70693;48.680;8.890;2024-01-06T02:34:36;3.97;;;2.55;;
26303;SDS011;70693;48.680;8.890;2024-01-06T02:37:03;4.15;;;2.72;;
26303;SDS011;70693;48.680;8.890;2024-01-06T02:39:29;4.25;;;2.90;;
26303;SDS011;70693;48.680;8.890;2024-01-06T02:41:54;5.22;;;2.40;;
26303;SDS011;70693;48.680;8.890;2024-01-06T02:44:20;3.97;;;2.50;;
26303;SDS011;70693;48.680;8.890;2024-01-06T02:46:45;4.30;;;2.53;;
26303;SDS011;70693;48.680;8.890;2024-01-06T02:49:11;4.18;;;2.20;;
26303;SDS011;70693;48.680;8.890;2024-01-06T02:51:36;3.55;;;2.38;;
26303;SDS011;70693;48.680;8.890;2024-01-06T02:54:02;4.32;;;2.65;;
26303;SDS011;70693;48.680;8.890;2024-01-06T02:56:28;4.03;;;2.60;;
26303;SDS011;70693;48.680;8.890;2024-01-06T02:58:54;4.38;;;2.40;;
26303;SDS011;70693;48.680;8.890;2024-01-06T03:01:19;4.25;;;2.47;;
26303;SDS011;70693;48.680;8.890;2024-01-06T03:03:45;2.92;;;1.90;;
26303;SDS011;70693;48.680;8.890;2024-01-06T03:06:11;3.00;;;1.90;;
26303;SDS011;70693;48.680;8.890;2024-01-06T03:08:36;3.72;;;2.03;;
26303;SDS011;70693;48.680;8.890;2024-01-06T03:11:02;3.05;;;1.77;;
26303;SDS011;70693;48.680;8.890;2024-01-06T03:13:30;3.30;;;2.13;;
26303;SDS011;70693;48.680;8.890;2024-01-06T03:15:56;3.85;;;2.13;;
26303;SDS011;70693;48.680;8.890;2024-01-06T03:18:21;3.13;;;1.80;;
26303;SDS011;70693;48.680;8.890;2024-01-06T03:20:47;3.45;;;1.83;;
26303;SDS011;70693;48.680;8.890;2024-01-06T03:23:12;3.22;;;2.17;;
26303;SDS011;70693;48.680;8.890;2024-01-06T03:25:38;2.83;;;1.90;;
26303;SDS011;70693;48.680;8.890;2024-01-06T03:28:03;4.03;;;2.10;;
26303;SDS011;70693;48.680;8.890;2024-01-06T03:30:29;3.08;;;2.05;;
26303;SDS011;70693;48.680;8.890;2024-01-06T03:32:55;3.63;;;2.22;;
26303;SDS011;70693;48.680;8.890;2024-01-06T03:35:20;2.40;;;1.55;;
26303;SDS011;70693;48.680;8.890;2024-01-06T03:37:46;3.20;;;1.98;;
26303;SDS011;70693;48.680;8.890;2024-01-06T03:40:12;3.05;;;1.92;;
26303;SDS011;70693;48.680;8.890;2024-01-06T03:42:37;3.03;;;1.80;;
26303;SDS011;70693;48.680;8.890;2024-01-06T03:45:03;3.08;;;1.88;;
26303;SDS011;70693;48.680;8.890;2024-01-06T03:47:29;3.45;;;2.10;;
26303;SDS011;70693;48.680;8.890;2024-01-06T03:49:54;2.00;;;1.58;;
26303;SDS011;70693;48.680;8.890;2024-01-06T03:52:20;2.63;;;1.70;;
26303;SDS011;70693;48.680;8.890;2024-01-06T03:54:46;2.75;;;1.48;;
26303;SDS011;70693;48.680;8.890;2024-01-06T03:57:11;4.28;;;1.80;;
26303;SDS011;70693;48.680;8.890;2024-01-06T03:59:37;2.65;;;1.60;;
26303;SDS011;70693;48.680;8.890;2024-01-06T04:02:02;2.75;;;1.60;;
26303;SDS011;70693;48.680;8.890;2024-01-06T04:04:28;3.47;;;1.58;;
26303;SDS011;70693;48.680;8.890;2024-01-06T04:06:54;6.95;;;1.75;;
26303;SDS011;70693;48.680;8.890;2024-01-06T04:09:19;2.70;;;1.70;;
26303;SDS011;70693;48.680;8.890;2024-01-06T04:11:45;2.10;;;1.40;;
26303;SDS011;70693;48.680;8.890;2024-01-06T04:14:11;2.92;;;1.50;;
26303;SDS011;70693;48.680;8.890;2024-01-06T04:16:37;2.90;;;1.48;;
26303;SDS011;70693;48.680;8.890;2024-01-06T04:19:02;2.25;;;1.50;;
26303;SDS011;70693;48.680;8.890;2024-01-06T04:21:28;2.97;;;1.70;;
26303;SDS011;70693;48.680;8.890;2024-01-06T04:23:53;3.58;;;1.50;;
26303;SDS011;70693;48.680;8.890;2024-01-06T04:26:21;2.00;;;1.30;;
26303;SDS011;70693;48.680;8.890;2024-01-06T04:28:46;3.22;;;1.55;;
26303;SDS011;70693;48.680;8.890;2024-01-06T04:31:12;2.10;;;1.60;;
26303;SDS011;70693;48.680;8.890;2024-01-06T04:33:37;1.92;;;1.17;;
26303;SDS011;70693;48.680;8.890;2024-01-06T04:36:05;3.30;;;1.50;;
26303;SDS011;70693;48.680;8.890;2024-01-06T04:38:32;2.50;;;1.42;;
26303;SDS011;70693;48.680;8.890;2024-01-06T04:40:57;2.83;;;1.23;;
26303;SDS011;70693;48.680;8.890;2024-01-06T04:43:23;2.40;;;1.48;;
26303;SDS011;70693;48.680;8.890;2024-01-06T04:45:48;2.13;;;1.33;;
26303;SDS011;70693;48.680;8.890;2024-01-06T04:48:15;3.25;;;1.45;;
26303;SDS011;70693;48.680;8.890;2024-01-06T04:50:41;1.83;;;1.20;;
26303;SDS011;70693;48.680;8.890;2024-01-06T04:53:06;2.47;;;1.38;;
26303;SDS011;70693;48.680;8.890;2024-01-06T04:55:33;2.28;;;1.33;;
26303;SDS011;70693;48.680;8.890;2024-01-06T04:57:58;1.77;;;1.20;;
26303;SDS011;70693;48.680;8.890;2024-01-06T05:00:24;3.22;;;1.20;;
26303;SDS011;70693;48.680;8.890;2024-01-06T05:02:50;2.35;;;1.13;;
26303;SDS011;70693;48.680;8.890;2024-01-06T05:05:16;2.15;;;1.20;;
26303;SDS011;70693;48.680;8.890;2024-01-06T05:07:41;2.47;;;1.25;;
26303;SDS011;70693;48.680;8.890;2024-01-06T05:10:07;2.38;;;1.35;;
26303;SDS011;70693;48.680;8.890;2024-01-06T05:12:33;2.70;;;1.40;;
26303;SDS011;70693;48.680;8.890;2024-01-06T05:14:59;2.58;;;1.30;;
26303;SDS011;70693;48.680;8.890;2024-01-06T05:17:24;2.10;;;1.38;;
26303;SDS011;70693;48.680;8.890;2024-01-06T05:19:50;2.05;;;1.17;;
26303;SDS011;70693;48.680;8.890;2024-01-06T05:22:16;2.35;;;1.17;;
26303;SDS011;70693;48.680;8.890;2024-01-06T05:24:41;2.90;;;1.30;;
26303;SDS011;70693;48.680;8.890;2024-01-06T05:27:07;2.13;;;1.30;;
26303;SDS011;70693;48.680;8.890;2024-01-06T05:29:32;1.92;;;1.27;;
26303;SDS011;70693;48.680;8.890;2024-01-06T05:31:58;1.77;;;1.20;;
26303;SDS011;70693;48.680;8.890;2024-01-06T05:34:24;2.17;;;1.10;;
26303;SDS011;70693;48.680;8.890;2024-01-06T05:36:49;1.90;;;1.10;;
26303;SDS011;70693;48.680;8.890;2024-01-06T05:39:16;2.05;;;1.10;;
26303;SDS011;70693;48.680;8.890;2024-01-06T05:41:42;1.95;;;1.00;;
26303;SDS011;70693;48.680;8.890;2024-01-06T05:44:08;1.98;;;1.15;;
26303;SDS011;70693;48.680;8.890;2024-01-06T05:46:33;1.45;;;1.10;;
26303;SDS011;70693;48.680;8.890;2024-01-06T05:48:59;2.28;;;1.30;;
26303;SDS011;70693;48.680;8.890;2024-01-06T05:51:25;1.65;;;1.00;;
26303;SDS011;70693;48.680;8.890;2024-01-06T05:53:51;2.47;;;1.05;;
26303;SDS011;70693;48.680;8.890;2024-01-06T05:56:26;2.25;;;1.00;;
26303;SDS011;70693;48.680;8.890;2024-01-06T05:58:52;1.60;;;0.80;;
26303;SDS011;70693;48.680;8.890;2024-01-06T06:01:18;2.08;;;1.15;;
26303;SDS011;70693;48.680;8.890;2024-01-06T06:03:45;2.60;;;1.13;;
26303;SDS011;70693;48.680;8.890;2024-01-06T06:06:11;1.75;;;1.13;;
26303;SDS011;70693;48.680;8.890;2024-01-06T06:08:37;2.00;;;1.15;;
26303;SDS011;70693;48.680;8.890;2024-01-06T06:11:03;1.75;;;1.00;;
26303;SDS011;70693;48.680;8.890;2024-01-06T06:13:36;3.45;;;1.20;;
26303;SDS011;70693;48.680;8.890;2024-01-06T06:16:02;2.80;;;1.20;;
26303;SDS011;70693;48.680;8.890;2024-01-06T06:18:29;1.50;;;0.90;;
26303;SDS011;70693;48.680;8.890;2024-01-06T06:20:54;1.48;;;1.13;;
26303;SDS011;70693;48.680;8.890;2024-01-06T06:23:20;1.80;;;0.77;;
26303;SDS011;70693;48.680;8.890;2024-01-06T06:25:45;1.35;;;1.00;;
26303;SDS011;70693;48.680;8.890;2024-01-06T06:28:11;1.70;;;1.20;;
26303;SDS011;70693;48.680;8.890;2024-01-06T06:30:37;1.70;;;0.90;;
26303;SDS011;70693;48.680;8.890;2024-01-06T06:33:03;2.05;;;1.00;;
26303;SDS011;70693;48.680;8.890;2024-01-06T06:35:29;1.88;;;1.00;;
26303;SDS011;70693;48.680;8.890;2024-01-06T06:37:54;2.28;;;1.10;;
26303;SDS011;70693;48.680;8.890;2024-01-06T06:40:20;2.90;;;0.80;;
26303;SDS011;70693;48.680;8.890;2024-01-06T06:42:45;1.40;;;0.95;;
26303;SDS011;70693;48.680;8.890;2024-01-06T06:45:11;1.50;;;0.93;;
26303;SDS011;70693;48.680;8.890;2024-01-06T06:47:37;1.88;;;1.00;;
26303;SDS011;70693;48.680;8.890;2024-01-06T06:50:02;1.55;;;1.00;;
26303;SDS011;70693;48.680;8.890;2024-01-06T06:52:28;2.47;;;1.08;;
26303;SDS011;70693;48.680;8.890;2024-01-06T06:54:54;1.40;;;0.80;;
26303;SDS011;70693;48.680;8.890;2024-01-06T06:57:19;2.60;;;1.05;;
26303;SDS011;70693;48.680;8.890;2024-01-06T06:59:45;1.58;;;0.85;;
26303;SDS011;70693;48.680;8.890;2024-01-06T07:02:11;1.80;;;1.08;;
26303;SDS011;70693;48.680;8.890;2024-01-06T07:04:36;1.70;;;0.80;;
26303;SDS011;70693;48.680;8.890;2024-01-06T07:07:02;2.00;;;0.95;;
26303;SDS011;70693;48.680;8.890;2024-01-06T07:09:28;1.60;;;1.02;;
26303;SDS011;70693;48.680;8.890;2024-01-06T07:11:53;2.88;;;1.25;;
26303;SDS011;70693;48.680;8.890;2024-01-06T07:14:19;1.48;;;1.10;;
26303;SDS011;70693;48.680;8.890;2024-01-06T07:16:45;1.92;;;0.98;;
26303;SDS011;70693;48.680;8.890;2024-01-06T07:19:11;1.60;;;1.17;;
26303;SDS011;70693;48.680;8.890;2024-01-06T07:21:36;2.00;;;1.08;;
26303;SDS011;70693;48.680;8.890;2024-01-06T07:24:02;2.15;;;1.10;;
26303;SDS011;70693;48.680;8.890;2024-01-06T07:26:28;2.97;;;1.52;;
26303;SDS011;70693;48.680;8.890;2024-01-06T07:28:53;3.13;;;1.75;;
26303;SDS011;70693;48.680;8.890;2024-01-06T07:31:19;1.67;;;1.20;;
26303;SDS011;70693;48.680;8.890;2024-01-06T07:33:45;2.58;;;1.45;;
26303;SDS011;70693;48.680;8.890;2024-01-06T07:36:10;2.45;;;1.40;;
26303;SDS011;70693;48.680;8.890;2024-01-06T07:38:36;2.10;;;1.40;;
26303;SDS011;70693;48.680;8.890;2024-01-06T07:41:02;2.92;;;1.40;;
26303;SDS011;70693;48.680;8.890;2024-01-06T07:43:29;1.60;;;1.20;;
26303;SDS011;70693;48.680;8.890;2024-01-06T07:45:55;2.08;;;1.42;;
26303;SDS011;70693;48.680;8.890;2024-01-06T07:48:21;2.33;;;1.17;;
26303;SDS011;70693;48.680;8.890;2024-01-06T07:50:47;2.60;;;1.35;;
26303;SDS011;70693;48.680;8.890;2024-01-06T07:53:12;2.55;;;1.10;;
26303;SDS011;70693;48.680;8.890;2024-01-06T07:55:41;1.70;;;1.23;;
26303;SDS011;70693;48.680;8.890;2024-01-06T07:58:07;2.47;;;1.50;;
26303;SDS011;70693;48.680;8.890;2024-01-06T08:00:33;2.42;;;1.15;;
26303;SDS011;70693;48.680;8.890;2024-01-06T08:02:58;4.28;;;1.10;;
26303;SDS011;70693;48.680;8.890;2024-01-06T08:05:25;2.72;;;1.55;;
26303;SDS011;70693;48.680;8.890;2024-01-06T08:07:51;2.28;;;1.50;;
26303;SDS011;70693;48.680;8.890;2024-01-06T08:10:17;3.15;;;1.55;;
26303;SDS011;70693;48.680;8.890;2024-01-06T08:12:42;3.63;;;2.03;;
26303;SDS011;70693;48.680;8.890;2024-01-06T08:15:08;3.97;;;2.60;;
26303;SDS011;70693;48.680;8.890;2024-01-06T08:17:34;3.78;;;2.20;;
26303;SDS011;70693;48.680;8.890;2024-01-06T08:20:00;3.92;;;2.30;;
26303;SDS011;70693;48.680;8.890;2024-01-06T08:22:27;4.47;;;2.35;;
26303;SDS011;70693;48.680;8.890;2024-01-06T08:24:52;3.40;;;2.45;;
26303;SDS011;70693;48.680;8.890;2024-01-06T08:27:18;3.65;;;2.10;;
26303;SDS011;70693;48.680;8.890;2024-01-06T08:29:43;3.72;;;2.15;;
26303;SDS011;70693;48.680;8.890;2024-01-06T08:32:09;3.13;;;1.88;;
26303;SDS011;70693;48.680;8.890;2024-01-06T08:34:36;3.33;;;2.10;;
26303;SDS011;70693;48.680;8.890;2024-01-06T08:37:02;2.83;;;1.80;;
26303;SDS011;70693;48.680;8.890;2024-01-06T08:39:29;4.30;;;2.30;;
26303;SDS011;70693;48.680;8.890;2024-01-06T08:41:54;4.60;;;2.25;;
26303;SDS011;70693;48.680;8.890;2024-01-06T08:44:20;3.53;;;2.20;;
26303;SDS011;70693;48.680;8.890;2024-01-06T08:46:45;2.50;;;1.73;;
26303;SDS011;70693;48.680;8.890;2024-01-06T08:49:11;3.08;;;2.00;;
26303;SDS011;70693;48.680;8.890;2024-01-06T08:51:37;3.10;;;2.00;;
26303;SDS011;70693;48.680;8.890;2024-01-06T08:54:02;2.88;;;1.88;;
26303;SDS011;70693;48.680;8.890;2024-01-06T08:56:31;2.55;;;1.63;;
26303;SDS011;70693;48.680;8.890;2024-01-06T08:58:57;3.85;;;1.80;;
26303;SDS011;70693;48.680;8.890;2024-01-06T09:01:23;3.00;;;2.05;;
26303;SDS011;70693;48.680;8.890;2024-01-06T09:03:48;2.75;;;1.80;;
26303;SDS011;70693;48.680;8.890;2024-01-06T09:06:15;4.15;;;1.50;;
26303;SDS011;70693;48.680;8.890;2024-01-06T09:08:40;2.80;;;1.90;;
26303;SDS011;70693;48.680;8.890;2024-01-06T09:11:06;2.70;;;1.52;;
26303;SDS011;70693;48.680;8.890;2024-01-06T09:13:32;3.45;;;2.00;;
26303;SDS011;70693;48.680;8.890;2024-01-06T09:15:58;3.47;;;1.80;;
26303;SDS011;70693;48.680;8.890;2024-01-06T09:18:25;3.22;;;1.90;;
26303;SDS011;70693;48.680;8.890;2024-01-06T09:20:52;3.88;;;1.85;;
26303;SDS011;70693;48.680;8.890;2024-01-06T09:23:19;2.22;;;1.60;;
26303;SDS011;70693;48.680;8.890;2024-01-06T09:25:45;2.65;;;1.65;;
26303;SDS011;70693;48.680;8.890;2024-01-06T09:28:14;3.08;;;1.80;;
26303;SDS011;70693;48.680;8.890;2024-01-06T09:30:39;2.90;;;1.45;;
26303;SDS011;70693;48.680;8.890;2024-01-06T09:33:05;3.05;;;1.70;;
26303;SDS011;70693;48.680;8.890;2024-01-06T09:35:33;2.03;;;1.50;;
26303;SDS011;70693;48.680;8.890;2024-01-06T09:37:58;2.28;;;1.35;;
26303;SDS011;70693;48.680;8.890;2024-01-06T09:40:24;2.47;;;1.60;;
26303;SDS011;70693;48.680;8.890;2024-01-06T09:42:50;2.55;;;1.65;;
26303;SDS011;70693;48.680;8.890;2024-01-06T09:45:16;2.47;;;1.70;;
26303;SDS011;70693;48.680;8.890;2024-01-06T09:47:42;2.70;;;1.50;;
26303;SDS011;70693;48.680;8.890;2024-01-06T09:50:10;2.58;;;1.50;;
26303;SDS011;70693;48.680;8.890;2024-01-06T09:52:41;2.75;;;1.70;;
26303;SDS011;70693;48.680;8.890;2024-01-06T09:55:10;2.10;;;1.40;;
26303;SDS011;70693;48.680;8.890;2024-01-06T09:57:36;2.30;;;1.42;;
26303;SDS011;70693;48.680;8.890;2024-01-06T10:00:02;2.00;;;1.30;;
26303;SDS011;70693;48.680;8.890;2024-01-06T10:02:29;2.55;;;1.52;;
26303;SDS011;70693;48.680;8.890;2024-01-06T10:04:56;1.42;;;1.00;;
26303;SDS011;70693;48.680;8.890;2024-01-06T10:07:23;2.35;;;1.45;;
26303;SDS011;70693;48.680;8.890;2024-01-06T10:09:51;1.75;;;1.25;;
26303;SDS011;70693;48.680;8.890;2024-01-06T10:12:23;1.85;;;1.38;;
26303;SDS011;70693;48.680;8.890;2024-01-06T10:14:51;1.27;;;1.13;;
26303;SDS011;70693;48.680;8.890;2024-01-06T10:17:19;2.58;;;1.17;;
26303;SDS011;70693;48.680;8.890;2024-01-06T10:19:46;1.98;;;1.13;;
26303;SDS011;70693;48.680;8.890;2024-01-06T10:22:13;2.28;;;1.33;;
26303;SDS011;70693;48.680;8.890;2024-01-06T10:24:39;1.27;;;0.93;;
26303;SDS011;70693;48.680;8.890;2024-01-06T10:27:05;1.27;;;1.00;;
26303;SDS011;70693;48.680;8.890;2024-01-06T10:29:31;1.58;;;0.98;;
26303;SDS011;70693;48.680;8.890;2024-01-06T10:31:57;1.33;;;1.10;;
26303;SDS011;70693;48.680;8.890;2024-01-06T10:34:23;1.52;;;1.10;;
26303;SDS011;70693;48.680;8.890;2024-01-06T10:36:50;1.25;;;0.98;;
26303;SDS011;70693;48.680;8.890;2024-01-06T10:39:17;1.85;;;1.38;;
26303;SDS011;70693;48.680;8.890;2024-01-06T10:41:43;1.60;;;1.08;;
26303;SDS011;70693;48.680;8.890;2024-01-06T10:44:11;1.80;;;1.17;;
26303;SDS011;70693;48.680;8.890;2024-01-06T10:46:38;1.63;;;1.08;;
26303;SDS011;70693;48.680;8.890;2024-01-06T10:49:05;1.67;;;1.10;;
26303;SDS011;70693;48.680;8.890;2024-01-06T10:51:33;2.00;;;1.30;;
26303;SDS011;70693;48.680;8.890;2024-01-06T10:54:01;3.03;;;1.00;;
26303;SDS011;70693;48.680;8.890;2024-01-06T10:56:27;1.15;;;0.95;;
26303;SDS011;70693;48.680;8.890;2024-01-06T10:58:55;1.17;;;0.80;;
26303;SDS011;70693;48.680;8.890;2024-01-06T11:01:22;1.35;;;0.95;;
26303;SDS011;70693;48.680;8.890;2024-01-06T11:03:49;1.58;;;1.10;;
26303;SDS011;70693;48.680;8.890;2024-01-06T11:06:16;1.40;;;1.08;;
26303;SDS011;70693;48.680;8.890;2024-01-06T11:08:57;1.60;;;0.85;;
26303;SDS011;70693;48.680;8.890;2024-01-06T11:11:27;1.70;;;1.20;;
26303;SDS011;70693;48.680;8.890;2024-01-06T11:13:54;1.40;;;0.90;;
26303;SDS011;70693;48.680;8.890;2024-01-06T11:16:50;1.50;;;0.98;;
26303;SDS011;70693;48.680;8.890;2024-01-06T11:19:49;1.20;;;0.85;;
26303;SDS011;70693;48.680;8.890;2024-01-06T11:22:27;1.83;;;1.00;;
26303;SDS011;70693;48.680;8.890;2024-01-06T11:24:57;1.55;;;0.90;;
26303;SDS011;70693;48.680;8.890;2024-01-06T11:27:32;0.93;;;0.70;;
26303;SDS011;70693;48.680;8.890;2024-01-06T11:29:59;1.42;;;0.90;;
26303;SDS011;70693;48.680;8.890;2024-01-06T11:32:34;0.90;;;0.70;;
26303;SDS011;70693;48.680;8.890;2024-01-06T11:35:21;0.98;;;0.88;;
26303;SDS011;70693;48.680;8.890;2024-01-06T11:43:08;1.20;;;0.90;;
26303;SDS011;70693;48.680;8.890;2024-01-06T11:45:37;1.17;;;0.90;;
26303;SDS011;70693;48.680;8.890;2024-01-06T11:48:05;1.23;;;0.80;;
26303;SDS011;70693;48.680;8.890;2024-01-06T11:50:33;1.42;;;0.95;;
26303;SDS011;70693;48.680;8.890;2024-01-06T11:53:00;1.70;;;0.95;;
26303;SDS011;70693;48.680;8.890;2024-01-06T11:55:26;1.27;;;0.77;;
26303;SDS011;70693;48.680;8.890;2024-01-06T11:57:59;1.48;;;0.80;;
26303;SDS011;70693;48.680;8.890;2024-01-06T12:00:28;0.93;;;0.80;;
26303;SDS011;70693;48.680;8.890;2024-01-06T12:02:57;1.08;;;0.90;;
26303;SDS011;70693;48.680;8.890;2024-01-06T12:05:24;0.90;;;0.70;;
26303;SDS011;70693;48.680;8.890;2024-01-06T12:08:01;1.00;;;0.80;;
26303;SDS011;70693;48.680;8.890;2024-01-06T12:10:31;1.35;;;0.95;;
26303;SDS011;70693;48.680;8.890;2024-01-06T12:13:01;1.02;;;0.80;;
26303;SDS011;70693;48.680;8.890;2024-01-06T12:15:32;1.15;;;0.90;;
26303;SDS011;70693;48.680;8.890;2024-01-06T12:17:58;1.45;;;0.90;;
26303;SDS011;70693;48.680;8.890;2024-01-06T12:20:27;1.00;;;0.70;;
26303;SDS011;70693;48.680;8.890;2024-01-06T12:22:54;1.08;;;0.70;;
26303;SDS011;70693;48.680;8.890;2024-01-06T12:25:23;1.02;;;0.68;;
26303;SDS011;70693;48.680;8.890;2024-01-06T12:27:50;0.85;;;0.68;;
26303;SDS011;70693;48.680;8.890;2024-01-06T12:30:17;1.00;;;0.85;;
26303;SDS011;70693;48.680;8.890;2024-01-06T12:32:48;0.65;;;0.60;;
26303;SDS011;70693;48.680;8.890;2024-01-06T12:35:15;1.00;;;0.80;;
26303;SDS011;70693;48.680;8.890;2024-01-06T12:37:41;1.17;;;0.85;;
26303;SDS011;70693;48.680;8.890;2024-01-06T12:40:09;1.75;;;0.85;;
26303;SDS011;70693;48.680;8.890;2024-01-06T12:42:35;1.13;;;0.70;;
26303;SDS011;70693;48.680;8.890;2024-01-06T12:45:01;1.25;;;0.88;;
26303;SDS011;70693;48.680;8.890;2024-01-06T12:47:27;0.63;;;0.60;;
26303;SDS011;70693;48.680;8.890;2024-01-06T12:49:53;1.42;;;0.88;;
26303;SDS011;70693;48.680;8.890;2024-01-06T12:52:19;1.15;;;0.70;;
26303;SDS011;70693;48.680;8.890;2024-01-06T12:54:44;1.20;;;0.70;;
26303;SDS011;70693;48.680;8.890;2024-01-06T12:57:10;0.63;;;0.50;;
26303;SDS011;70693;48.680;8.890;2024-01-06T12:59:37;1.08;;;0.70;;
26303;SDS011;70693;48.680;8.890;2024-01-06T13:02:02;1.05;;;0.60;;
26303;SDS011;70693;48.680;8.890;2024-01-06T13:04:28;1.13;;;0.75;;
26303;SDS011;70693;48.680;8.890;2024-01-06T13:06:54;1.13;;;0.70;;
26303;SDS011;70693;48.680;8.890;2024-01-06T13:09:19;0.95;;;0.70;;
26303;SDS011;70693;48.680;8.890;2024-01-06T13:11:48;0.60;;;0.55;;
26303;SDS011;70693;48.680;8.890;2024-01-06T13:14:15;0.73;;;0.60;;
26303;SDS011;70693;48.680;8.890;2024-01-06T13:16:41;0.80;;;0.70;;
26303;SDS011;70693;48.680;8.890;2024-01-06T13:19:07;0.80;;;0.60;;
26303;SDS011;70693;48.680;8.890;2024-01-06T13:21:32;0.90;;;0.60;;
26303;SDS011;70693;48.680;8.890;2024-01-06T13:24:00;1.08;;;0.55;;
26303;SDS011;70693;48.680;8.890;2024-01-06T13:26:27;0.90;;;0.60;;
26303;SDS011;70693;48.680;8.890;2024-01-06T13:28:53;1.15;;;0.82;;
26303;SDS011;70693;48.680;8.890;2024-01-06T13:31:19;0.90;;;0.70;;
26303;SDS011;70693;48.680;8.890;2024-01-06T13:33:45;1.30;;;0.60;;
26303;SDS011;70693;48.680;8.890;2024-01-06T13:36:11;1.00;;;0.60;;
26303;SDS011;70693;48.680;8.890;2024-01-06T13:38:38;0.80;;;0.60;;
26303;SDS011;70693;48.680;8.890;2024-01-06T13:41:04;1.42;;;0.80;;
26303;SDS011;70693;48.680;8.890;2024-01-06T13:43:30;0.93;;;0.63;;
26303;SDS011;70693;48.680;8.890;2024-01-06T13:45:57;0.98;;;0.73;;
26303;SDS011;70693;48.680;8.890;2024-01-06T13:48:22;0.65;;;0.50;;
26303;SDS011;70693;48.680;8.890;2024-01-06T13:50:48;1.00;;;0.70;;
26303;SDS011;70693;48.680;8.890;2024-01-06T13:53:14;0.95;;;0.70;;
26303;SDS011;70693;48.680;8.890;2024-01-06T13:55:40;1.10;;;0.70;;
26303;SDS011;70693;48.680;8.890;2024-01-06T13:58:06;0.82;;;0.60;;
26303;SDS011;70693;48.680;8.890;2024-01-06T14:00:34;0.73;;;0.50;;
26303;SDS011;70693;48.680;8.890;2024-01-06T14:03:01;1.15;;;0.75;;
26303;SDS011;70693;48.680;8.890;2024-01-06T14:05:27;1.08;;;0.70;;
26303;SDS011;70693;48.680;8.890;2024-01-06T14:07:53;0.47;;;0.40;;
26303;SDS011;70693;48.680;8.890;2024-01-06T14:10:19;1.30;;;0.73;;
26303;SDS011;70693;48.680;8.890;2024-01-06T14:12:45;0.77;;;0.65;;
26303;SDS011;70693;48.680;8.890;2024-01-06T14:15:11;1.27;;;0.70;;
26303;SDS011;70693;48.680;8.890;2024-01-06T14:17:37;1.40;;;0.82;;
26303;SDS011;70693;48.680;8.890;2024-01-06T14:20:04;0.95;;;0.60;;
26303;SDS011;70693;48.680;8.890;2024-01-06T14:22:30;0.88;;;0.70;;
26303;SDS011;70693;48.680;8.890;2024-01-06T14:24:55;1.05;;;0.75;;
26303;SDS011;70693;48.680;8.890;2024-01-06T14:27:21;0.77;;;0.57;;
26303;SDS011;70693;48.680;8.890;2024-01-06T14:29:47;0.82;;;0.65;;
26303;SDS011;70693;48.680;8.890;2024-01-06T14:32:14;0.93;;;0.60;;
26303;SDS011;70693;48.680;8.890;2024-01-06T14:34:40;1.25;;;0.73;;
26303;SDS011;70693;48.680;8.890;2024-01-06T14:37:05;0.50;;;0.40;;
26303;SDS011;70693;48.680;8.890;2024-01-06T14:39:32;1.15;;;0.80;;
26303;SDS011;70693;48.680;8.890;2024-01-06T14:41:58;0.63;;;0.50;;
26303;SDS011;70693;48.680;8.890;2024-01-06T14:44:24;0.93;;;0.60;;
26303;SDS011;70693;48.680;8.890;2024-01-06T14:46:52;1.00;;;0.80;;
26303;SDS011;70693;48.680;8.890;2024-01-06T14:49:18;0.93;;;0.63;;